Hauptseite
METAR-TAF:

METAR-TAF

Flughäfen :

Baltra, Galápagos, Ecuador

Breite: 00-27-14S, Länge: 090-15-57W, Höhe: 63 m

Beobachtung

Neuester Wetterbericht von vor 42 Minuten, um 22:00 UTC
Wind 14 kt aus Süd
Temperatur 26°C
Luftfeuchtigkeit 65%
Luftdruck 1011 hPa
Sichtweite 10 km oder mehr
Aufgelockert bewölkt in der Höhe von 2600 ft
Durchbrochene Bewölkung in der Höhe von 9000 ft

METAR: SEGS 182200Z 17014KT 9999 SCT026 BKN090 26/19 Q1011 RMK A2987

Zeit: 16:42 (22:42 UTC)


TAF: fehlend

Wetterbeobachtungen und Prognosen von mehr als 4000 Flughäfen (METAR und TAF Bericht).

Die verfügbaren Stationen werden durch gelbe und rote Markierungen auf der Karte dargestellt.

Führen Sie die Maus auf sie, um den Namen der Station zu sehen.

Darauf klicken, um die Beobachtung von Wetterbeobachtungen und Prognosen zu sehen.

Um die Karte zu ändern : klicken Sie auf den grünen Tasten mit einem schwarzen Kreuz Zum Vergrößern, auf den grünen Button mit einem Gedankenstrich zu verkleinern, oder auf die grünen Pfeile für benachbarte Karten.


METAR-TAF: